createdAt,value
2023-02-07T00:00:22.559Z,12.95
2023-02-07T01:11:36.889Z,17.35
2023-02-07T01:31:19.446Z,16.73
2023-02-07T01:33:48.825Z,16.23
2023-02-07T01:36:17.148Z,16.43
2023-02-07T01:38:44.422Z,16.97
2023-02-07T01:41:12.777Z,15.43
2023-02-07T02:18:23.662Z,17.60
2023-02-07T02:21:09.718Z,15.73
2023-02-07T02:23:43.933Z,14.90
2023-02-07T02:26:23.987Z,16.57
2023-02-07T02:29:00.462Z,16.47
2023-02-07T02:31:39.236Z,15.47
2023-02-07T02:34:18.637Z,15.77
2023-02-07T02:37:03.491Z,15.93
2023-02-07T02:39:53.714Z,16.10
2023-02-07T02:42:36.433Z,16.73
2023-02-07T02:45:05.717Z,16.07
2023-02-07T02:47:33.395Z,16.10
2023-02-07T02:50:02.712Z,16.33
2023-02-07T02:52:48.631Z,14.93
2023-02-07T02:55:23.067Z,19.30
2023-02-07T02:58:02.345Z,21.30
2023-02-07T03:00:29.608Z,22.00
2023-02-07T03:03:03.348Z,15.90
2023-02-07T03:08:08.866Z,13.70
2023-02-07T03:10:48.789Z,13.87
2023-02-07T03:13:41.761Z,12.83
2023-02-07T03:16:17.540Z,12.40
2023-02-07T03:18:48.973Z,13.27
2023-02-07T03:21:25.215Z,12.73
2023-02-07T03:23:53.817Z,9.90
2023-02-07T03:26:22.138Z,10.50
2023-02-07T03:28:54.184Z,11.17
2023-02-07T03:31:23.372Z,10.37
2023-02-07T03:33:53.872Z,10.90
2023-02-07T03:36:28.107Z,10.33
2023-02-07T03:38:55.320Z,9.90
2023-02-07T03:41:28.446Z,10.93
2023-02-07T03:43:56.850Z,10.13
2023-02-07T03:56:12.654Z,11.50
2023-02-07T03:58:39.815Z,11.77
2023-02-07T04:15:49.897Z,10.80
2023-02-07T04:18:17.069Z,11.27
2023-02-07T04:20:44.287Z,11.27
2023-02-07T04:23:11.507Z,13.37
2023-02-07T04:25:39.112Z,11.93
2023-02-07T04:28:07.482Z,13.13
2023-02-07T04:30:34.749Z,13.40
2023-02-07T04:33:01.976Z,15.32
2023-02-07T04:35:29.161Z,15.27
2023-02-07T04:37:56.371Z,16.30
2023-02-07T04:40:23.568Z,14.48
2023-02-07T04:42:50.798Z,14.05
2023-02-07T04:45:18.024Z,14.40
2023-02-07T04:47:45.268Z,16.80
2023-02-07T04:50:12.481Z,18.13
2023-02-07T04:52:41.458Z,18.42
2023-02-07T04:55:09.260Z,21.85
2023-02-07T04:57:36.462Z,19.13
2023-02-07T05:00:04.452Z,17.37
2023-02-07T05:02:31.879Z,18.85
2023-02-07T05:04:59.152Z,18.88
2023-02-07T05:07:26.366Z,18.60
2023-02-07T05:09:53.711Z,19.73
2023-02-07T05:12:20.950Z,17.95
2023-02-07T05:14:48.159Z,19.17
2023-02-07T05:17:15.475Z,18.58
2023-02-07T05:19:42.654Z,18.15
2023-02-07T05:22:10.540Z,17.83
2023-02-07T05:24:37.741Z,20.63
2023-02-07T05:27:05.208Z,20.58
2023-02-07T05:29:32.413Z,17.45
2023-02-07T05:32:19.881Z,21.95
2023-02-07T05:34:47.218Z,16.17
2023-02-07T06:26:19.030Z,19.02
2023-02-07T06:28:46.206Z,19.38
2023-02-07T06:31:13.524Z,18.58
2023-02-07T06:33:40.770Z,18.20
2023-02-07T06:36:08.116Z,19.00
2023-02-07T06:38:35.357Z,18.63
2023-02-07T06:41:02.613Z,18.67
2023-02-07T06:43:29.832Z,18.25
2023-02-07T06:45:57.075Z,17.88
2023-02-07T06:48:24.424Z,16.27
2023-02-07T06:50:51.931Z,17.85
2023-02-07T06:53:19.126Z,17.98
2023-02-07T06:55:46.383Z,20.65
2023-02-07T06:58:13.579Z,20.83
2023-02-07T07:00:40.812Z,18.60
2023-02-07T07:03:08.152Z,20.23
2023-02-07T07:05:35.593Z,18.50
2023-02-07T07:08:02.951Z,19.58
2023-02-07T07:10:30.269Z,18.35
2023-02-07T07:12:57.543Z,19.20
2023-02-07T07:15:24.800Z,20.25
2023-02-07T07:17:52.073Z,19.02
2023-02-07T07:20:19.357Z,19.33
2023-02-07T07:22:46.584Z,21.17
2023-02-07T07:25:13.808Z,18.50
2023-02-07T07:27:41.002Z,18.98
2023-02-07T07:30:10.644Z,20.23
2023-02-07T07:32:38.191Z,20.83
2023-02-07T07:35:05.554Z,19.38
2023-02-07T07:37:32.774Z,20.23
2023-02-07T07:39:59.936Z,17.88
2023-02-07T07:42:27.150Z,18.63
2023-02-07T07:45:11.037Z,18.08
2023-02-07T07:47:38.298Z,18.20
2023-02-07T07:50:06.817Z,18.67
2023-02-07T07:52:35.001Z,17.83
2023-02-07T07:59:56.941Z,18.13
2023-02-07T08:02:24.512Z,15.87
2023-02-07T08:04:51.808Z,13.33
2023-02-07T08:12:13.261Z,13.13
2023-02-07T08:14:40.480Z,12.03
2023-02-07T08:17:07.750Z,13.07
2023-02-07T08:19:34.939Z,12.40
2023-02-07T08:22:02.236Z,10.37
2023-02-07T08:24:29.510Z,12.63
2023-02-07T08:26:57.547Z,11.63
2023-02-07T08:29:24.720Z,11.20
2023-02-07T08:31:51.963Z,12.47
2023-02-07T08:34:24.012Z,10.37
2023-02-07T08:36:51.225Z,12.60
2023-02-07T08:39:18.420Z,10.73
2023-02-07T08:41:45.576Z,13.40
2023-02-07T08:44:12.920Z,9.03
2023-02-07T10:25:12.886Z,4.63
2023-02-07T10:27:55.179Z,5.27
2023-02-07T10:35:19.756Z,4.60
2023-02-07T10:37:48.601Z,3.93
2023-02-07T10:40:15.825Z,4.57
2023-02-07T10:42:46.404Z,3.97
2023-02-07T10:45:14.726Z,4.20
2023-02-07T10:47:42.525Z,3.33
2023-02-07T11:24:42.256Z,6.90
2023-02-07T11:27:17.158Z,19.40
2023-02-07T11:29:52.850Z,8.20
2023-02-07T11:32:20.857Z,4.90
2023-02-07T11:34:49.269Z,6.13
2023-02-07T11:39:47.510Z,7.83
2023-02-07T11:42:19.262Z,6.17
2023-02-07T11:44:47.797Z,8.40
2023-02-07T11:47:17.075Z,5.80
2023-02-07T11:49:47.118Z,4.77
2023-02-07T11:52:14.720Z,6.43
2023-02-07T11:54:43.760Z,5.13
2023-02-07T11:57:14.974Z,5.63
2023-02-07T11:59:59.635Z,4.30
2023-02-07T12:02:29.030Z,5.03
2023-02-07T12:04:56.735Z,11.50
2023-02-07T12:07:27.496Z,3.83
2023-02-07T12:10:00.552Z,3.33
2023-02-07T12:12:42.184Z,3.50
2023-02-07T12:15:41.843Z,3.47
2023-02-07T12:18:21.073Z,3.60
2023-02-07T12:20:51.415Z,3.93
2023-02-07T12:23:42.461Z,3.33
2023-02-07T12:26:16.138Z,3.83
2023-02-07T12:29:11.044Z,3.25
2023-02-07T12:31:39.909Z,4.53
2023-02-07T12:34:12.986Z,3.20
2023-02-07T12:36:42.949Z,4.15
2023-02-07T12:39:10.164Z,4.33
2023-02-07T12:41:41.701Z,4.50
2023-02-07T12:44:27.544Z,4.77
2023-02-07T12:46:57.758Z,4.50
2023-02-07T12:49:34.880Z,3.90
2023-02-07T12:52:20.379Z,5.47
2023-02-07T12:54:47.594Z,4.37
2023-02-07T12:57:24.024Z,3.67
2023-02-07T12:59:51.334Z,4.73
2023-02-07T13:02:24.587Z,3.73
2023-02-07T13:05:00.905Z,4.63
2023-02-07T13:07:46.723Z,4.30
2023-02-07T13:10:14.010Z,3.83
2023-02-07T13:13:10.538Z,4.10
2023-02-07T13:15:48.757Z,4.27
2023-02-07T13:18:25.134Z,5.03
2023-02-07T13:20:52.420Z,5.77
2023-02-07T13:23:21.823Z,20.20
2023-02-07T13:25:50.815Z,17.17
2023-02-07T13:28:26.515Z,3.87
2023-02-07T13:30:54.750Z,8.27
2023-02-07T13:33:35.545Z,6.27
2023-02-07T13:36:09.246Z,18.03
2023-02-07T13:38:58.531Z,5.53
2023-02-07T13:41:34.925Z,9.03
2023-02-07T13:44:09.860Z,6.33
2023-02-07T13:46:56.602Z,11.47
2023-02-07T13:49:50.574Z,4.13
2023-02-07T13:52:23.737Z,17.80
2023-02-07T13:54:50.965Z,7.18
2023-02-07T13:57:40.802Z,14.70
2023-02-07T14:00:14.950Z,6.47
2023-02-07T14:02:45.002Z,5.13
2023-02-07T14:05:18.978Z,6.93
2023-02-07T14:07:50.592Z,5.03
2023-02-07T14:10:35.971Z,3.97
2023-02-07T14:13:03.187Z,4.53
2023-02-07T14:15:30.744Z,4.27
2023-02-07T14:20:45.390Z,5.57
2023-02-07T14:23:19.935Z,10.27
2023-02-07T14:25:47.945Z,6.10
2023-02-07T14:28:36.350Z,4.63
2023-02-07T14:31:20.053Z,4.53
2023-02-07T14:34:07.322Z,5.95
2023-02-07T14:36:36.493Z,4.80
2023-02-07T14:39:06.923Z,3.50
2023-02-07T14:49:05.549Z,3.60
2023-02-07T14:51:37.689Z,4.47
2023-02-07T14:54:20.062Z,3.13
2023-02-07T14:56:52.864Z,3.83
2023-02-07T14:59:39.283Z,3.67
2023-02-07T15:02:25.338Z,3.67
2023-02-07T15:04:52.519Z,3.13
2023-02-07T15:07:19.765Z,3.43
2023-02-07T15:09:46.977Z,3.50
2023-02-07T15:12:26.798Z,3.80
2023-02-07T15:14:57.043Z,4.23
2023-02-07T15:17:33.410Z,4.00
2023-02-07T15:20:06.872Z,2.90
2023-02-07T15:22:34.416Z,2.97
2023-02-07T15:25:01.776Z,7.43
2023-02-07T15:34:50.945Z,18.40
2023-02-07T15:37:24.677Z,8.17
2023-02-07T15:39:53.278Z,7.70
2023-02-07T15:42:21.242Z,4.47
2023-02-07T15:44:52.869Z,6.13
2023-02-07T15:47:29.561Z,4.70
2023-02-07T15:50:05.029Z,4.23
2023-02-07T15:52:32.263Z,6.73
2023-02-07T15:55:00.894Z,3.90
2023-02-07T15:57:31.100Z,5.47
2023-02-07T16:00:02.383Z,5.73
2023-02-07T16:02:41.761Z,4.70
2023-02-07T16:05:13.462Z,4.30
2023-02-07T16:15:02.738Z,4.97
2023-02-07T16:17:44.069Z,5.27
2023-02-07T16:20:14.727Z,3.97
2023-02-07T16:22:43.807Z,5.00
2023-02-07T16:25:34.357Z,5.20
2023-02-07T16:28:02.131Z,5.10
2023-02-07T16:30:31.246Z,5.30
2023-02-07T16:37:53.180Z,5.47
2023-02-07T16:40:24.563Z,12.17
2023-02-07T16:42:53.632Z,9.93
2023-02-07T16:45:22.590Z,9.73
2023-02-07T16:47:50.157Z,7.23
2023-02-07T16:50:19.109Z,5.90
2023-02-07T16:52:47.073Z,6.17
2023-02-07T16:55:14.321Z,5.63
2023-02-07T16:57:42.254Z,4.93
2023-02-07T17:00:10.961Z,6.20
2023-02-07T17:02:38.174Z,10.47
2023-02-07T17:05:05.532Z,7.13
2023-02-07T17:07:32.736Z,5.97
2023-02-07T17:09:59.930Z,5.70
2023-02-07T17:12:27.326Z,7.43
2023-02-07T17:14:54.502Z,6.33
2023-02-07T17:17:23.358Z,7.63
2023-02-07T17:19:51.327Z,6.67
2023-02-07T17:22:18.545Z,6.63
2023-02-07T17:24:46.625Z,6.37
2023-02-07T17:27:13.916Z,6.90
2023-02-07T17:29:41.746Z,6.40
2023-02-07T17:32:09.746Z,6.83
2023-02-07T17:34:37.140Z,6.53
2023-02-07T17:37:04.448Z,7.57
2023-02-07T17:39:31.696Z,7.83
2023-02-07T17:41:58.922Z,6.13
2023-02-07T17:44:28.312Z,7.23
2023-02-07T17:46:55.501Z,7.63
2023-02-07T17:49:22.719Z,7.70
2023-02-07T17:51:50.123Z,8.60
2023-02-07T17:54:17.370Z,8.47
2023-02-07T17:56:44.601Z,8.23
2023-02-07T17:59:17.976Z,8.43
2023-02-07T18:01:45.190Z,10.38
2023-02-07T18:04:12.733Z,8.83
2023-02-07T18:06:40.134Z,9.43
2023-02-07T18:09:07.748Z,8.67
2023-02-07T18:11:34.970Z,7.83
2023-02-07T18:14:03.016Z,6.80
2023-02-07T18:16:30.378Z,7.27
2023-02-07T18:18:58.258Z,7.93
2023-02-07T18:21:26.230Z,7.37
2023-02-07T18:23:53.618Z,7.43
2023-02-07T18:26:21.340Z,8.30
2023-02-07T18:28:48.552Z,7.13
2023-02-07T18:31:17.559Z,7.40
2023-02-07T18:33:44.938Z,13.10
2023-02-07T18:36:12.566Z,8.23
2023-02-07T18:38:39.883Z,8.43
2023-02-07T18:41:21.131Z,8.37
2023-02-07T18:43:49.423Z,8.83
2023-02-07T18:46:18.687Z,7.70
2023-02-07T18:48:46.701Z,7.67
2023-02-07T18:51:15.171Z,7.17
2023-02-07T18:53:46.189Z,7.33
2023-02-07T18:56:15.720Z,10.07
2023-02-07T18:58:43.842Z,9.13
2023-02-07T19:01:18.621Z,6.63
2023-02-07T19:03:46.801Z,8.43
2023-02-07T19:06:14.401Z,10.70
2023-02-07T19:08:42.003Z,8.83
2023-02-07T19:11:10.055Z,8.23
2023-02-07T19:13:37.374Z,8.83
2023-02-07T19:16:08.885Z,7.77
2023-02-07T19:18:36.127Z,9.27
2023-02-07T19:21:07.471Z,8.00
2023-02-07T19:23:34.932Z,8.70
2023-02-07T19:26:02.748Z,7.87
2023-02-07T19:28:30.032Z,9.57
2023-02-07T19:30:57.256Z,8.33
2023-02-07T19:33:24.619Z,7.80
2023-02-07T19:35:51.904Z,8.03
2023-02-07T19:38:19.036Z,8.10
2023-02-07T19:40:56.034Z,8.50
2023-02-07T19:43:23.360Z,10.73
2023-02-07T19:45:50.670Z,9.97
2023-02-07T19:48:17.804Z,10.23
2023-02-07T19:50:45.181Z,9.53
2023-02-07T19:53:13.767Z,8.93
2023-02-07T19:55:42.008Z,8.77
2023-02-07T19:58:09.140Z,9.43
2023-02-07T20:00:36.278Z,10.67
2023-02-07T20:03:03.428Z,9.10
2023-02-07T20:05:30.833Z,9.10
2023-02-07T20:07:59.058Z,8.33
2023-02-07T20:10:26.220Z,8.87
2023-02-07T20:12:53.365Z,9.20
2023-02-07T20:15:20.562Z,10.03
2023-02-07T20:17:48.361Z,10.97
2023-02-07T20:20:15.639Z,8.57
2023-02-07T20:22:42.784Z,9.97
2023-02-07T20:25:09.944Z,9.47
2023-02-07T20:27:37.112Z,9.97
2023-02-07T20:30:04.503Z,9.83
2023-02-07T20:32:31.646Z,9.63
2023-02-07T21:27:33.336Z,23.53
2023-02-07T21:30:00.570Z,26.57
2023-02-07T21:32:27.797Z,20.63
2023-02-07T21:34:55.082Z,20.13
2023-02-07T21:37:24.008Z,13.93
2023-02-07T21:39:51.252Z,13.57
2023-02-07T21:42:18.472Z,15.03
2023-02-07T21:44:45.821Z,13.00
2023-02-07T21:47:13.013Z,13.87
2023-02-07T21:49:40.437Z,13.80
2023-02-07T21:52:07.678Z,14.57
2023-02-07T21:54:34.986Z,12.57
2023-02-07T21:57:02.197Z,13.77
2023-02-07T21:59:29.927Z,11.50
2023-02-07T22:01:58.190Z,14.13
2023-02-07T22:04:25.214Z,13.93
2023-02-07T22:06:52.079Z,12.20
2023-02-07T22:09:20.393Z,12.67
2023-02-07T22:11:47.682Z,12.17
2023-02-07T22:14:15.651Z,13.03
2023-02-07T22:16:43.263Z,10.63
2023-02-07T22:19:13.437Z,12.90
2023-02-07T22:21:40.712Z,12.80
2023-02-07T22:24:08.061Z,14.33
2023-02-07T22:26:35.232Z,13.10
2023-02-07T22:29:03.483Z,13.10
2023-02-07T22:31:32.274Z,14.57
2023-02-07T22:34:02.400Z,14.27
2023-02-07T22:36:33.421Z,14.53
2023-02-07T22:39:01.535Z,13.83
2023-02-07T22:41:29.405Z,12.50
2023-02-07T22:43:56.306Z,12.43
2023-02-07T22:46:24.607Z,14.37
2023-02-07T22:48:52.444Z,14.93
2023-02-07T22:51:32.578Z,14.53
2023-02-07T22:54:05.534Z,16.50
2023-02-07T22:56:33.424Z,17.75
2023-02-07T22:59:00.464Z,12.37
2023-02-07T23:01:34.436Z,14.70
2023-02-07T23:04:07.481Z,13.13
2023-02-07T23:06:34.390Z,14.63
2023-02-07T23:09:01.673Z,13.50
2023-02-07T23:11:28.505Z,13.82
2023-02-07T23:13:55.459Z,12.60
2023-02-07T23:16:27.426Z,13.55
2023-02-07T23:18:56.835Z,12.37
2023-02-07T23:21:25.056Z,12.77
2023-02-07T23:23:51.925Z,12.52
2023-02-07T23:26:22.030Z,11.13
2023-02-07T23:28:49.247Z,9.67
2023-02-07T23:31:18.238Z,10.00
2023-02-07T23:33:45.118Z,9.53
2023-02-07T23:36:12.691Z,7.57
2023-02-07T23:38:39.838Z,7.80
2023-02-07T23:41:09.754Z,8.53
2023-02-07T23:43:37.575Z,9.27
2023-02-07T23:46:05.799Z,9.77
2023-02-07T23:48:37.795Z,10.73
2023-02-07T23:51:06.741Z,10.47
2023-02-07T23:53:33.603Z,11.77
2023-02-07T23:56:01.141Z,14.43
2023-02-07T23:58:28.241Z,13.93
